createdAt,value
2023-02-15T00:01:22.886Z,9.77
2023-02-15T00:03:52.261Z,45.83
2023-02-15T00:06:21.176Z,7.30
2023-02-15T00:08:50.144Z,9.60
2023-02-15T00:11:38.899Z,7.47
2023-02-15T00:14:15.948Z,7.70
2023-02-15T00:16:46.077Z,7.03
2023-02-15T00:19:17.424Z,10.40
2023-02-15T00:21:47.573Z,7.28
2023-02-15T00:24:19.292Z,8.88
2023-02-15T00:26:49.174Z,6.93
2023-02-15T00:29:20.344Z,6.38
2023-02-15T00:31:50.363Z,7.90
2023-02-15T00:34:31.062Z,9.50
2023-02-15T00:37:00.230Z,7.13
2023-02-15T00:39:31.015Z,7.97
2023-02-15T00:42:00.088Z,8.73
2023-02-15T00:44:29.126Z,7.82
2023-02-15T00:46:58.106Z,8.63
2023-02-15T00:49:27.068Z,7.30
2023-02-15T00:51:56.020Z,6.25
2023-02-15T00:54:25.238Z,7.70
2023-02-15T00:56:54.155Z,8.27
2023-02-15T00:59:23.095Z,7.30
2023-02-15T01:01:52.011Z,6.15
2023-02-15T01:04:20.962Z,6.72
2023-02-15T01:06:49.982Z,6.43
2023-02-15T01:09:18.865Z,7.53
2023-02-15T01:12:02.739Z,9.75
2023-02-15T01:14:33.234Z,9.18
2023-02-15T01:17:05.116Z,9.95
2023-02-15T01:19:35.175Z,9.27
2023-02-15T01:22:04.284Z,7.93
2023-02-15T01:24:33.381Z,7.32
2023-02-15T01:27:02.330Z,6.30
2023-02-15T01:29:31.277Z,6.45
2023-02-15T01:32:00.282Z,6.47
2023-02-15T01:34:29.269Z,8.35
2023-02-15T01:36:58.144Z,7.32
2023-02-15T01:39:27.116Z,7.20
2023-02-15T01:41:56.346Z,7.68
2023-02-15T01:44:49.665Z,8.82
2023-02-15T01:47:41.145Z,14.05
2023-02-15T01:50:27.840Z,8.45
2023-02-15T01:53:09.022Z,7.38
2023-02-15T01:55:49.728Z,8.00
2023-02-15T01:58:19.231Z,8.43
2023-02-15T02:00:48.291Z,11.10
2023-02-15T02:03:18.017Z,6.82
2023-02-15T02:05:46.947Z,7.75
2023-02-15T02:08:16.051Z,9.43
2023-02-15T02:10:48.093Z,10.15
2023-02-15T02:13:17.201Z,9.30
2023-02-15T02:15:55.295Z,7.88
2023-02-15T02:18:31.792Z,7.95
2023-02-15T02:21:44.534Z,7.55
2023-02-15T02:25:01.302Z,10.02
2023-02-15T02:27:36.373Z,6.57
2023-02-15T02:30:11.102Z,5.97
2023-02-15T02:33:04.735Z,7.85
2023-02-15T02:35:55.962Z,7.22
2023-02-15T02:38:43.250Z,7.25
2023-02-15T02:41:38.641Z,8.98
2023-02-15T02:44:23.701Z,8.95
2023-02-15T02:47:28.130Z,7.50
2023-02-15T02:50:03.959Z,18.95
2023-02-15T02:52:48.874Z,7.40
2023-02-15T02:55:45.508Z,7.68
2023-02-15T02:58:29.271Z,10.23
2023-02-15T03:01:08.380Z,6.72
2023-02-15T03:03:42.593Z,8.52
2023-02-15T03:06:22.827Z,6.78
2023-02-15T03:08:57.198Z,8.30
2023-02-15T03:11:26.280Z,5.80
2023-02-15T03:13:55.364Z,7.00
2023-02-15T03:16:30.859Z,7.53
2023-02-15T03:19:15.684Z,5.45
2023-02-15T03:22:22.421Z,6.45
2023-02-15T03:24:59.100Z,7.53
2023-02-15T03:27:34.834Z,6.70
2023-02-15T03:30:06.094Z,8.90
2023-02-15T03:32:36.937Z,7.20
2023-02-15T03:35:06.567Z,6.88
2023-02-15T03:37:43.291Z,6.22
2023-02-15T03:40:43.665Z,7.85
2023-02-15T03:43:28.691Z,5.32
2023-02-15T03:46:08.288Z,8.13
2023-02-15T03:48:44.479Z,7.10
2023-02-15T03:51:36.114Z,7.60
2023-02-15T03:54:07.254Z,6.60
2023-02-15T03:56:38.700Z,11.05
2023-02-15T03:59:25.815Z,5.60
2023-02-15T04:02:27.030Z,7.72
2023-02-15T04:04:55.932Z,7.53
2023-02-15T04:07:25.041Z,10.68
2023-02-15T04:10:12.182Z,8.90
2023-02-15T04:12:41.041Z,7.53
2023-02-15T04:15:32.587Z,9.57
2023-02-15T04:18:01.559Z,7.00
2023-02-15T04:20:48.886Z,9.13
2023-02-15T04:23:36.168Z,18.13
2023-02-15T04:26:08.404Z,8.30
2023-02-15T04:28:37.732Z,7.63
2023-02-15T04:31:06.640Z,7.72
2023-02-15T04:33:38.479Z,8.05
2023-02-15T04:36:08.758Z,10.15
2023-02-15T04:38:37.846Z,7.35
2023-02-15T04:41:06.748Z,5.88
2023-02-15T04:43:35.636Z,6.68
2023-02-15T04:46:04.862Z,9.23
2023-02-15T04:48:34.165Z,6.90
2023-02-15T04:51:09.172Z,8.30
2023-02-15T04:53:38.434Z,5.80
2023-02-15T04:56:07.366Z,7.70
2023-02-15T04:58:37.223Z,5.50
2023-02-15T05:01:09.232Z,6.43
2023-02-15T05:03:38.429Z,6.72
2023-02-15T05:06:10.710Z,7.78
2023-02-15T05:08:39.674Z,9.85
2023-02-15T05:11:10.380Z,5.57
2023-02-15T05:13:39.492Z,6.47
2023-02-15T05:16:08.369Z,8.15
2023-02-15T05:18:37.253Z,5.88
2023-02-15T05:21:06.666Z,6.40
2023-02-15T05:23:35.577Z,6.18
2023-02-15T05:26:22.571Z,5.93
2023-02-15T05:28:51.442Z,5.57
2023-02-15T05:31:21.518Z,5.15
2023-02-15T05:33:50.785Z,5.75
2023-02-15T05:36:19.700Z,4.18
2023-02-15T05:38:48.588Z,5.82
2023-02-15T05:41:17.444Z,6.85
2023-02-15T05:43:46.360Z,4.45
2023-02-15T05:46:15.490Z,5.60
2023-02-15T05:48:44.374Z,7.03
2023-02-15T05:51:16.104Z,5.60
2023-02-15T05:53:45.121Z,7.78
2023-02-15T05:56:14.749Z,6.70
2023-02-15T05:58:44.463Z,6.88
2023-02-15T06:01:23.993Z,6.95
2023-02-15T06:03:54.074Z,9.27
2023-02-15T06:06:23.025Z,4.85
2023-02-15T06:08:52.111Z,7.50
2023-02-15T06:11:21.084Z,9.10
2023-02-15T06:13:50.033Z,6.22
2023-02-15T06:16:18.951Z,6.43
2023-02-15T06:18:47.935Z,8.60
2023-02-15T06:21:17.120Z,6.10
2023-02-15T06:23:46.021Z,10.30
2023-02-15T06:26:14.988Z,5.47
2023-02-15T06:28:43.921Z,5.05
2023-02-15T06:31:13.255Z,6.95
2023-02-15T06:33:43.787Z,9.18
2023-02-15T06:36:12.878Z,5.60
2023-02-15T06:38:41.823Z,7.95
2023-02-15T06:41:10.796Z,8.52
2023-02-15T06:43:40.933Z,5.75
2023-02-15T06:46:10.139Z,6.20
2023-02-15T06:48:39.046Z,7.82
2023-02-15T06:51:08.113Z,5.72
2023-02-15T06:53:37.816Z,9.13
2023-02-15T06:56:10.978Z,7.68
2023-02-15T06:58:45.454Z,7.73
2023-02-15T07:01:14.816Z,9.60
2023-02-15T07:03:43.793Z,6.35
2023-02-15T07:06:13.431Z,8.30
2023-02-15T07:08:42.585Z,7.00
2023-02-15T07:11:29.662Z,8.18
2023-02-15T07:13:58.877Z,9.00
2023-02-15T07:16:27.831Z,8.60
2023-02-15T07:18:56.761Z,7.25
2023-02-15T07:21:25.637Z,6.55
2023-02-15T07:23:54.707Z,7.65
2023-02-15T07:26:23.579Z,6.05
2023-02-15T07:28:52.535Z,5.68
2023-02-15T07:31:21.523Z,7.07
2023-02-15T07:33:50.397Z,6.43
2023-02-15T07:36:19.264Z,10.07
2023-02-15T07:38:48.211Z,6.85
2023-02-15T07:41:18.335Z,8.07
2023-02-15T07:43:48.335Z,7.82
2023-02-15T07:46:18.998Z,8.35
2023-02-15T07:48:48.087Z,8.15
2023-02-15T07:51:17.911Z,4.93
2023-02-15T07:53:47.039Z,6.85
2023-02-15T07:56:17.147Z,7.50
2023-02-15T07:58:55.134Z,6.13
2023-02-15T08:01:35.660Z,5.28
2023-02-15T08:04:06.113Z,5.03
2023-02-15T08:06:37.699Z,5.85
2023-02-15T08:09:08.330Z,6.72
2023-02-15T08:11:44.863Z,6.20
2023-02-15T08:14:16.664Z,7.88
2023-02-15T08:16:50.969Z,7.45
2023-02-15T08:19:25.254Z,5.80
2023-02-15T08:21:59.608Z,10.70
2023-02-15T08:24:31.297Z,4.80
2023-02-15T08:27:00.624Z,8.60
2023-02-15T08:29:31.074Z,6.85
2023-02-15T08:32:04.658Z,4.45
2023-02-15T08:34:36.546Z,4.95
2023-02-15T08:37:05.536Z,4.40
2023-02-15T08:39:34.635Z,3.40
2023-02-15T08:42:03.613Z,6.28
2023-02-15T08:44:32.565Z,5.53
2023-02-15T08:47:05.555Z,6.82
2023-02-15T08:49:34.833Z,4.97
2023-02-15T08:52:03.704Z,5.93
2023-02-15T08:54:32.772Z,7.28
2023-02-15T08:57:02.471Z,5.88
2023-02-15T08:59:31.426Z,7.03
2023-02-15T09:02:00.591Z,8.30
2023-02-15T09:04:29.624Z,4.82
2023-02-15T09:06:58.518Z,5.28
2023-02-15T09:09:27.428Z,6.15
2023-02-15T09:11:59.358Z,6.57
2023-02-15T09:14:29.542Z,9.18
2023-02-15T09:16:58.636Z,9.25
2023-02-15T09:19:27.936Z,5.22
2023-02-15T09:21:57.212Z,9.50
2023-02-15T09:24:26.620Z,5.53
2023-02-15T09:26:55.578Z,9.20
2023-02-15T09:29:24.818Z,5.20
2023-02-15T09:31:55.681Z,4.43
2023-02-15T09:34:25.882Z,4.30
2023-02-15T09:36:55.558Z,3.83
2023-02-15T09:39:27.149Z,5.90
2023-02-15T09:42:09.123Z,2.90
2023-02-15T09:45:18.469Z,3.72
2023-02-15T09:48:09.196Z,5.60
2023-02-15T09:50:56.212Z,6.97
2023-02-15T09:53:28.170Z,3.83
2023-02-15T09:56:19.555Z,6.72
2023-02-15T09:58:49.999Z,9.13
2023-02-15T10:01:36.983Z,7.32
2023-02-15T10:04:27.689Z,9.13
2023-02-15T10:07:03.651Z,4.35
2023-02-15T10:09:43.935Z,7.57
2023-02-15T10:12:24.966Z,7.15
2023-02-15T10:15:11.236Z,5.80
2023-02-15T10:18:17.137Z,4.90
2023-02-15T10:20:49.058Z,7.63
2023-02-15T10:23:49.005Z,6.15
2023-02-15T10:26:21.835Z,8.27
2023-02-15T10:29:32.731Z,6.40
2023-02-15T10:32:08.042Z,4.80
2023-02-15T10:34:53.162Z,9.70
2023-02-15T10:37:26.214Z,5.97
2023-02-15T10:40:13.005Z,5.73
2023-02-15T10:43:04.341Z,6.20
2023-02-15T10:46:05.430Z,9.65
2023-02-15T10:49:12.310Z,11.13
2023-02-15T10:52:15.415Z,5.03
2023-02-15T10:54:44.246Z,9.73
2023-02-15T10:57:20.840Z,12.60
2023-02-15T10:59:54.923Z,7.03
2023-02-15T11:02:39.199Z,12.82
2023-02-15T11:05:23.755Z,12.23
2023-02-15T11:07:58.323Z,6.18
2023-02-15T11:10:30.301Z,8.15
2023-02-15T11:13:05.013Z,10.65
2023-02-15T11:15:43.946Z,8.40
2023-02-15T11:18:19.794Z,6.70
2023-02-15T11:21:11.406Z,7.35
2023-02-15T11:23:49.127Z,11.38
2023-02-15T11:26:37.344Z,6.35
2023-02-15T11:29:43.568Z,8.93
2023-02-15T11:32:23.679Z,11.07
2023-02-15T11:35:01.844Z,6.13
2023-02-15T11:37:42.557Z,9.13
2023-02-15T11:40:43.788Z,7.82
2023-02-15T11:43:24.667Z,10.93
2023-02-15T11:45:53.809Z,7.50
2023-02-15T11:48:26.897Z,10.60
2023-02-15T11:50:55.866Z,9.93
2023-02-15T11:53:29.754Z,9.95
2023-02-15T11:58:44.741Z,10.10
2023-02-15T12:01:35.134Z,16.20
2023-02-15T12:04:33.359Z,16.25
2023-02-15T12:07:05.448Z,16.90
2023-02-15T12:09:52.421Z,18.48
2023-02-15T12:12:35.891Z,24.25
2023-02-15T12:15:07.539Z,24.25
2023-02-15T12:17:42.251Z,26.40
2023-02-15T12:20:16.960Z,29.15
2023-02-15T12:22:54.385Z,32.72
2023-02-15T12:25:38.870Z,49.30
2023-02-15T12:28:40.711Z,29.98
2023-02-15T12:31:39.458Z,32.92
2023-02-15T12:34:33.300Z,32.03
2023-02-15T12:37:23.751Z,28.03
2023-02-15T12:39:58.770Z,24.17
2023-02-15T12:42:31.157Z,33.53
2023-02-15T12:45:21.484Z,40.58
2023-02-15T12:48:17.980Z,38.13
2023-02-15T12:50:57.517Z,32.95
2023-02-15T12:53:35.591Z,41.88
2023-02-15T12:56:12.765Z,23.42
2023-02-15T12:58:43.600Z,30.42
2023-02-15T13:01:15.605Z,27.27
2023-02-15T13:04:06.837Z,21.25
2023-02-15T13:06:38.348Z,21.55
2023-02-15T13:09:29.981Z,14.50
2023-02-15T13:12:13.029Z,26.67
2023-02-15T13:14:53.530Z,19.60
2023-02-15T13:17:33.220Z,21.85
2023-02-15T13:20:11.845Z,17.60
2023-02-15T13:22:47.750Z,14.95
2023-02-15T13:25:31.445Z,17.23
2023-02-15T13:28:12.983Z,11.82
2023-02-15T13:30:46.899Z,18.83
2023-02-15T13:33:18.816Z,14.43
2023-02-15T13:35:59.214Z,14.35
2023-02-15T13:38:49.551Z,14.60
2023-02-15T13:41:36.444Z,15.98
2023-02-15T13:44:13.501Z,19.73
2023-02-15T13:47:10.459Z,18.95
2023-02-15T13:49:52.828Z,21.85
2023-02-15T13:52:30.137Z,20.35
2023-02-15T13:55:17.430Z,13.65
2023-02-15T13:57:50.515Z,14.32
2023-02-15T14:00:46.930Z,13.82
2023-02-15T14:03:43.031Z,16.77
2023-02-15T14:06:41.041Z,13.07
2023-02-15T14:09:22.539Z,10.55
2023-02-15T14:12:05.708Z,9.98
2023-02-15T14:14:42.720Z,13.05
2023-02-15T14:17:24.390Z,18.98
2023-02-15T14:20:01.596Z,18.80
2023-02-15T14:22:46.836Z,14.45
2023-02-15T14:25:22.012Z,10.48
2023-02-15T14:28:25.217Z,11.68
2023-02-15T14:30:55.430Z,8.77
2023-02-15T14:33:44.901Z,11.60
2023-02-15T14:36:19.261Z,11.57
2023-02-15T14:38:57.101Z,10.45
2023-02-15T14:41:40.931Z,9.55
2023-02-15T14:44:25.121Z,11.68
2023-02-15T14:49:33.584Z,9.13
2023-02-15T14:52:10.487Z,10.07
2023-02-15T14:54:39.458Z,7.70
2023-02-15T14:57:08.418Z,13.50
2023-02-15T14:59:48.745Z,7.13
2023-02-15T15:02:29.768Z,9.77
2023-02-15T15:05:09.900Z,8.80
2023-02-15T15:07:51.823Z,10.70
2023-02-15T15:10:22.016Z,9.43
2023-02-15T15:12:55.694Z,10.57
2023-02-15T15:15:33.319Z,13.85
2023-02-15T15:18:05.254Z,13.13
2023-02-15T15:20:53.679Z,13.43
2023-02-15T15:23:23.066Z,11.57
2023-02-15T15:26:17.767Z,19.73
2023-02-15T15:31:33.847Z,12.55
2023-02-15T15:34:44.468Z,12.32
2023-02-15T15:37:58.011Z,10.38
2023-02-15T15:40:36.511Z,9.00
2023-02-15T15:43:23.629Z,9.60
2023-02-15T15:46:33.768Z,11.15
2023-02-15T15:49:15.568Z,11.32
2023-02-15T15:51:46.109Z,11.52
2023-02-15T15:54:32.404Z,9.07
2023-02-15T15:57:06.057Z,7.60
2023-02-15T15:59:36.417Z,9.38
2023-02-15T16:02:19.851Z,12.05
2023-02-15T16:04:49.877Z,8.48
2023-02-15T16:07:21.586Z,9.48
2023-02-15T16:10:05.286Z,10.15
2023-02-15T16:12:37.355Z,10.15
2023-02-15T16:15:35.966Z,8.68
2023-02-15T16:18:05.255Z,9.45
2023-02-15T16:20:37.741Z,8.90
2023-02-15T16:23:28.188Z,8.43
2023-02-15T16:26:03.460Z,7.45
2023-02-15T16:28:32.756Z,9.75
2023-02-15T16:31:17.564Z,8.20
2023-02-15T16:33:47.724Z,7.88
2023-02-15T16:36:30.953Z,10.40
2023-02-15T16:38:59.806Z,9.95
2023-02-15T16:41:31.649Z,10.95
2023-02-15T16:44:05.604Z,9.73
2023-02-15T16:46:42.014Z,11.68
2023-02-15T16:49:19.541Z,12.90
2023-02-15T16:52:10.684Z,9.38
2023-02-15T16:54:39.571Z,10.75
2023-02-15T16:57:16.650Z,9.32
2023-02-15T16:59:49.733Z,8.80
2023-02-15T17:02:43.211Z,8.35
2023-02-15T17:05:21.174Z,9.88
2023-02-15T17:08:13.146Z,8.10
2023-02-15T17:10:44.012Z,11.82
2023-02-15T17:13:20.504Z,11.70
2023-02-15T17:16:25.344Z,8.77
2023-02-15T17:18:55.895Z,8.32
2023-02-15T17:21:36.254Z,10.05
2023-02-15T17:24:06.622Z,11.00
2023-02-15T17:26:40.868Z,9.95
2023-02-15T17:29:36.750Z,9.57
2023-02-15T17:32:07.693Z,10.93
2023-02-15T17:34:50.924Z,16.00
2023-02-15T17:37:30.148Z,11.25
2023-02-15T17:40:00.683Z,8.65
2023-02-15T17:42:29.594Z,8.50
2023-02-15T17:45:01.120Z,8.30
2023-02-15T17:47:31.176Z,14.52
2023-02-15T17:50:00.414Z,7.38
2023-02-15T17:52:31.813Z,7.22
2023-02-15T17:55:20.272Z,12.32
2023-02-15T17:57:49.316Z,6.32
2023-02-15T18:00:36.795Z,7.70
2023-02-15T18:03:24.028Z,8.57
2023-02-15T18:06:11.211Z,8.85
2023-02-15T18:08:58.737Z,9.60
2023-02-15T18:11:39.190Z,8.40
2023-02-15T18:14:10.501Z,8.85
2023-02-15T18:16:44.562Z,7.90
2023-02-15T18:21:49.856Z,8.10
2023-02-15T18:24:22.828Z,5.18
2023-02-15T18:26:52.764Z,5.22
2023-02-15T18:29:22.422Z,5.32
2023-02-15T18:31:55.582Z,7.47
2023-02-15T18:34:32.179Z,6.13
2023-02-15T18:37:03.710Z,4.88
2023-02-15T18:39:58.133Z,7.78
2023-02-15T18:42:33.379Z,4.80
2023-02-15T18:45:09.125Z,6.05
2023-02-15T18:47:38.067Z,15.38
2023-02-15T18:50:08.069Z,6.25
2023-02-15T18:52:39.775Z,5.00
2023-02-15T18:55:19.386Z,6.05
2023-02-15T18:57:50.078Z,4.97
2023-02-15T19:00:21.208Z,4.85
2023-02-15T19:02:50.298Z,4.85
2023-02-15T19:05:19.515Z,8.35
2023-02-15T19:07:51.670Z,5.88
2023-02-15T19:10:26.396Z,6.25
2023-02-15T19:12:56.291Z,5.63
2023-02-15T19:15:27.982Z,5.03
2023-02-15T19:17:57.378Z,6.32
2023-02-15T19:20:29.345Z,4.97
2023-02-15T19:22:59.814Z,5.45
2023-02-15T19:25:31.898Z,5.25
2023-02-15T19:28:01.221Z,4.07
2023-02-15T19:30:32.903Z,5.07
2023-02-15T19:33:03.296Z,7.68
2023-02-15T19:35:35.711Z,4.57
2023-02-15T19:38:09.160Z,4.85
2023-02-15T19:40:38.281Z,4.88
2023-02-15T19:43:20.169Z,11.50
2023-02-15T19:45:49.202Z,6.70
2023-02-15T19:48:18.091Z,5.32
2023-02-15T19:50:50.711Z,4.90
2023-02-15T19:53:27.880Z,5.70
2023-02-15T19:55:56.990Z,4.30
2023-02-15T19:58:25.972Z,4.85
2023-02-15T20:00:54.919Z,4.80
2023-02-15T20:03:23.896Z,5.70
2023-02-15T20:05:52.892Z,4.28
2023-02-15T20:08:23.952Z,7.00
2023-02-15T20:10:52.885Z,7.25
2023-02-15T20:13:22.583Z,6.40
2023-02-15T20:15:52.076Z,5.80
2023-02-15T20:18:22.603Z,5.63
2023-02-15T20:20:56.540Z,6.18
2023-02-15T20:23:30.305Z,5.68
2023-02-15T20:26:02.488Z,6.70
2023-02-15T20:28:32.894Z,6.57
2023-02-15T20:31:02.228Z,8.20
2023-02-15T20:33:31.412Z,9.05
2023-02-15T20:36:00.953Z,7.28
2023-02-15T20:38:32.715Z,8.40
2023-02-15T20:41:21.125Z,9.68
2023-02-15T20:43:50.049Z,8.57
2023-02-15T20:46:19.043Z,9.77
2023-02-15T20:48:47.942Z,9.48
2023-02-15T20:51:22.857Z,9.18
2023-02-15T20:53:51.796Z,9.38
2023-02-15T20:56:26.127Z,10.55
2023-02-15T20:58:55.474Z,6.95
2023-02-15T21:01:24.354Z,6.60
2023-02-15T21:03:53.377Z,8.82
2023-02-15T21:06:22.292Z,6.63
2023-02-15T21:08:51.151Z,6.97
2023-02-15T21:11:22.183Z,7.38
2023-02-15T21:13:54.196Z,7.90
2023-02-15T21:16:23.241Z,11.43
2023-02-15T21:18:52.147Z,7.13
2023-02-15T21:21:24.797Z,6.53
2023-02-15T21:23:54.816Z,6.78
2023-02-15T21:26:24.972Z,9.27
2023-02-15T21:28:54.014Z,7.70
2023-02-15T21:31:26.333Z,7.30
2023-02-15T21:33:56.322Z,6.88
2023-02-15T21:36:26.637Z,7.95
2023-02-15T21:38:55.858Z,7.57
2023-02-15T21:41:45.626Z,6.88
2023-02-15T21:44:39.618Z,6.97
2023-02-15T21:47:36.048Z,9.07
2023-02-15T21:50:25.334Z,7.05
2023-02-15T21:52:54.750Z,6.53
2023-02-15T21:55:23.729Z,7.80
2023-02-15T21:57:52.912Z,10.70
2023-02-15T22:00:24.994Z,6.85
2023-02-15T22:02:56.362Z,9.07
2023-02-15T22:05:35.592Z,8.52
2023-02-15T22:08:04.739Z,17.67
2023-02-15T22:10:34.539Z,17.48
2023-02-15T22:13:05.025Z,17.90
2023-02-15T22:15:37.752Z,17.60
2023-02-15T22:18:07.544Z,17.15
2023-02-15T22:20:36.453Z,17.48
2023-02-15T22:23:06.058Z,17.45
2023-02-15T22:25:34.951Z,16.30
2023-02-15T22:28:03.928Z,17.10
2023-02-15T22:30:38.487Z,17.25
2023-02-15T22:33:08.515Z,24.02
2023-02-15T22:35:38.813Z,24.48
2023-02-15T22:38:07.661Z,24.08
2023-02-15T22:40:36.522Z,14.32
2023-02-15T22:43:07.762Z,19.75
2023-02-15T22:45:37.443Z,8.95
2023-02-15T22:48:06.521Z,8.57
2023-02-15T22:50:37.561Z,8.57
2023-02-15T22:53:06.790Z,7.50
2023-02-15T22:55:39.031Z,7.93
2023-02-15T22:58:08.562Z,7.45
2023-02-15T23:00:41.376Z,10.55
2023-02-15T23:03:25.904Z,8.98
2023-02-15T23:08:23.564Z,12.65
2023-02-15T23:10:59.041Z,9.52
2023-02-15T23:13:33.381Z,8.25
2023-02-15T23:16:04.468Z,6.97
2023-02-15T23:18:45.065Z,8.20
2023-02-15T23:21:27.842Z,9.63
2023-02-15T23:24:07.271Z,6.97
2023-02-15T23:26:36.186Z,66.20
2023-02-15T23:29:07.930Z,7.43
2023-02-15T23:31:40.372Z,9.38
2023-02-15T23:34:20.223Z,16.73
2023-02-15T23:36:49.359Z,10.10
2023-02-15T23:39:42.946Z,13.23
2023-02-15T23:42:18.165Z,10.85
2023-02-15T23:44:48.389Z,12.60
2023-02-15T23:47:52.663Z,15.68
2023-02-15T23:50:23.981Z,10.75
2023-02-15T23:52:59.106Z,12.85
2023-02-15T23:55:44.002Z,8.48
2023-02-15T23:58:38.517Z,8.65
